Albertson, North Carolina
Current Conditions -  °F | °C
As of 3:35 AM on Wednesday 26 Nov 2014 (Local Time) from KDPL Reporting Station
Haze Haze  
Wind Chill: 56°   Ceiling: 200
Heat Index: 56°   Visibility: 4mi
Dew Point: 56°   Wind: 0mph
Humidity: 98%   Direction: NA
Pressure: 29.83"   Gusts: NA
Location:  35.11°N, 77.82°W
Report Text: KDPL 260835Z AUTO 00000KT 4SM BR OVC002 14/13 A2983 RMK AO2 T01350132
Loading
Personal Weather Stations






























Interactive Weather Map New forecast layout! Learn more

10-Day Weather Forecast

Advertisements
Track Severe Weather on mobile